createdAt,value
2022-12-22T00:02:41.420Z,-4.32
2022-12-22T00:05:36.080Z,-4.34
2022-12-22T00:08:22.053Z,-4.32
2022-12-22T00:11:07.728Z,-4.32
2022-12-22T00:13:53.824Z,-4.30
2022-12-22T00:16:39.435Z,-4.28
2022-12-22T00:19:32.120Z,-4.38
2022-12-22T00:22:21.593Z,-4.41
2022-12-22T00:25:07.251Z,-4.49
2022-12-22T00:27:52.775Z,-4.41
2022-12-22T00:30:39.136Z,-4.47
2022-12-22T00:33:25.361Z,-4.41
2022-12-22T00:36:11.033Z,-4.54
2022-12-22T00:38:56.772Z,-4.49
2022-12-22T00:41:42.409Z,-4.49
2022-12-22T00:44:27.816Z,-4.46
2022-12-22T00:47:13.418Z,-4.47
2022-12-22T00:50:02.418Z,-4.47
2022-12-22T00:52:47.936Z,-4.61
2022-12-22T00:55:37.668Z,-4.51
2022-12-22T00:58:30.243Z,-4.54
2022-12-22T01:01:16.170Z,-4.61
2022-12-22T01:04:01.857Z,-4.58
2022-12-22T01:06:51.040Z,-4.66
2022-12-22T01:09:37.308Z,-4.56
2022-12-22T01:12:37.286Z,-4.63
2022-12-22T01:15:28.321Z,-4.68
2022-12-22T01:18:14.115Z,-4.65
2022-12-22T01:20:59.820Z,-4.79
2022-12-22T01:23:45.381Z,-4.77
2022-12-22T01:26:31.035Z,-4.64
2022-12-22T01:29:16.874Z,-4.61
2022-12-22T01:32:02.334Z,-4.69
2022-12-22T01:34:47.955Z,-4.64
2022-12-22T01:37:33.608Z,-4.68
2022-12-22T01:40:19.142Z,-4.73
2022-12-22T01:43:04.762Z,-4.86
2022-12-22T01:45:54.635Z,-4.77
2022-12-22T01:48:45.644Z,-4.89
2022-12-22T01:51:41.692Z,-4.84
2022-12-22T01:54:28.209Z,-4.82
2022-12-22T01:57:14.411Z,-4.78
2022-12-22T02:00:00.608Z,-4.85
2022-12-22T02:02:47.259Z,-4.83
2022-12-22T02:05:36.042Z,-4.84
2022-12-22T02:08:24.078Z,-4.77
2022-12-22T02:11:27.615Z,-4.76
2022-12-22T02:14:47.360Z,-4.77
2022-12-22T02:17:40.615Z,-4.77
2022-12-22T02:20:28.857Z,-4.78
2022-12-22T02:23:28.605Z,-4.80
2022-12-22T02:26:57.331Z,-4.83
2022-12-22T02:29:55.545Z,-4.88
2022-12-22T02:32:44.595Z,-4.84
2022-12-22T02:35:35.386Z,-4.87
2022-12-22T02:38:23.387Z,-4.85
2022-12-22T02:41:20.825Z,-4.89
2022-12-22T02:44:06.426Z,-4.93
2022-12-22T02:47:17.879Z,-4.93
2022-12-22T02:50:19.400Z,-5.02
2022-12-22T02:53:07.623Z,-4.98
2022-12-22T02:55:53.558Z,-5.07
2022-12-22T02:58:39.328Z,-4.95
2022-12-22T03:01:25.739Z,-5.01
2022-12-22T03:04:11.185Z,-5.00
2022-12-22T03:06:56.826Z,-5.05
2022-12-22T03:09:45.213Z,-5.03
2022-12-22T03:12:30.495Z,-5.20
2022-12-22T03:15:16.451Z,-5.10
2022-12-22T03:18:02.385Z,-5.15
2022-12-22T03:20:47.816Z,-5.20
2022-12-22T03:23:33.702Z,-5.19
2022-12-22T03:26:00.842Z,-5.02
2022-12-22T03:28:29.621Z,-5.05
2022-12-22T03:31:04.745Z,-5.13
2022-12-22T03:33:32.562Z,-5.06
2022-12-22T03:36:00.969Z,-5.06
2022-12-22T03:38:28.565Z,-5.02
2022-12-22T03:40:56.029Z,-5.10
2022-12-22T03:43:42.250Z,-5.15
2022-12-22T03:46:32.956Z,-5.10
2022-12-22T03:49:11.512Z,-5.20
2022-12-22T03:51:47.496Z,-5.17
2022-12-22T03:54:17.816Z,-5.18
2022-12-22T03:56:45.982Z,-5.25
2022-12-22T03:59:14.081Z,-5.17
2022-12-22T04:01:43.635Z,-5.17
2022-12-22T04:04:13.029Z,-5.30
2022-12-22T04:06:41.095Z,-5.19
2022-12-22T04:09:08.502Z,-5.26
2022-12-22T04:11:55.089Z,-5.20
2022-12-22T04:14:26.642Z,-5.18
2022-12-22T04:16:56.832Z,-5.26
2022-12-22T04:19:25.622Z,-5.22
2022-12-22T04:21:52.672Z,-5.11
2022-12-22T04:24:19.626Z,-5.19
2022-12-22T04:26:46.889Z,-5.21
2022-12-22T04:29:14.044Z,-5.20
2022-12-22T04:31:41.162Z,-5.27
2022-12-22T04:34:08.588Z,-5.28
2022-12-22T04:36:35.648Z,-5.33
2022-12-22T04:39:02.631Z,-5.42
2022-12-22T04:41:29.699Z,-5.29
2022-12-22T04:43:56.866Z,-5.27
2022-12-22T04:46:23.955Z,-5.36
2022-12-22T04:48:56.172Z,-5.39
2022-12-22T04:51:26.888Z,-5.28
2022-12-22T04:53:53.913Z,-5.34
2022-12-22T04:56:21.117Z,-5.44
2022-12-22T04:58:48.276Z,-5.31
2022-12-22T05:01:18.559Z,-5.36
2022-12-22T05:03:46.245Z,-5.31
2022-12-22T05:06:13.862Z,-5.30
2022-12-22T05:08:41.209Z,-5.39
2022-12-22T05:11:08.384Z,-5.46
2022-12-22T05:13:35.594Z,-5.35
2022-12-22T05:16:06.564Z,-5.24
2022-12-22T05:18:34.979Z,-5.32
2022-12-22T05:21:09.638Z,-5.30
2022-12-22T05:23:36.853Z,-5.39
2022-12-22T05:26:04.424Z,-5.32
2022-12-22T05:28:32.513Z,-5.35
2022-12-22T05:31:11.399Z,-5.37
2022-12-22T05:33:38.471Z,-5.38
2022-12-22T05:36:06.080Z,-5.44
2022-12-22T05:38:33.243Z,-5.52
2022-12-22T05:41:04.366Z,-5.44
2022-12-22T05:43:33.124Z,-5.41
2022-12-22T05:46:06.506Z,-5.44
2022-12-22T05:48:38.422Z,-5.46
2022-12-22T05:51:08.790Z,-5.46
2022-12-22T05:53:38.123Z,-5.47
2022-12-22T05:56:05.827Z,-5.53
2022-12-22T05:58:33.334Z,-5.59
2022-12-22T06:01:01.151Z,-5.54
2022-12-22T06:03:28.264Z,-5.39
2022-12-22T06:05:55.857Z,-5.41
2022-12-22T06:08:24.060Z,-5.44
2022-12-22T06:10:51.730Z,-5.38
2022-12-22T06:13:18.738Z,-5.29
2022-12-22T06:15:46.042Z,-5.40
2022-12-22T06:18:13.503Z,-5.26
2022-12-22T06:20:40.743Z,-5.36
2022-12-22T06:23:07.866Z,-5.21
2022-12-22T06:25:34.872Z,-5.21
2022-12-22T06:28:01.980Z,-5.17
2022-12-22T06:30:33.169Z,-5.18
2022-12-22T06:33:01.640Z,-5.20
2022-12-22T06:35:29.172Z,-5.11
2022-12-22T06:37:56.473Z,-5.04
2022-12-22T06:40:23.626Z,-5.16
2022-12-22T06:43:09.785Z,-5.11
2022-12-22T06:45:39.566Z,-4.98
2022-12-22T06:48:09.741Z,-5.03
2022-12-22T06:50:37.203Z,-4.86
2022-12-22T06:53:05.599Z,-4.85
2022-12-22T06:55:32.735Z,-5.05
2022-12-22T06:58:00.113Z,-4.89
2022-12-22T07:00:27.095Z,-4.78
2022-12-22T07:02:54.426Z,-4.76
2022-12-22T07:05:22.016Z,-4.70
2022-12-22T07:12:26.072Z,-4.56
2022-12-22T07:14:53.070Z,-4.53
2022-12-22T07:17:20.426Z,-4.44
2022-12-22T07:20:28.777Z,-4.36
2022-12-22T07:23:01.159Z,-4.27
2022-12-22T07:25:28.244Z,-4.20
2022-12-22T07:27:55.199Z,-4.12
2022-12-22T08:56:45.565Z,1.17
2022-12-22T08:59:13.330Z,1.36
2022-12-22T09:01:44.758Z,1.51
2022-12-22T09:04:16.356Z,1.72
2022-12-22T09:06:43.314Z,1.93
2022-12-22T09:09:12.918Z,2.10
2022-12-22T09:11:40.612Z,2.21
2022-12-22T09:14:11.041Z,2.40
2022-12-22T09:16:38.764Z,2.58
2022-12-22T09:19:07.234Z,2.76
2022-12-22T09:21:35.299Z,2.93
2022-12-22T09:24:02.225Z,3.09
2022-12-22T09:26:29.435Z,3.20
2022-12-22T09:28:56.824Z,3.36
2022-12-22T09:31:26.021Z,3.59
2022-12-22T09:33:52.983Z,3.73
2022-12-22T09:36:23.133Z,3.90
2022-12-22T09:38:50.465Z,4.09
2022-12-22T09:41:31.999Z,4.26
2022-12-22T09:44:07.165Z,4.42
2022-12-22T09:46:37.794Z,4.62
2022-12-22T09:49:06.963Z,4.73
2022-12-22T09:51:47.876Z,4.86
2022-12-22T09:54:16.543Z,4.97
2022-12-22T09:56:43.373Z,5.10
2022-12-22T09:59:15.848Z,5.22
2022-12-22T10:02:00.778Z,5.40
2022-12-22T10:04:57.688Z,5.71
2022-12-22T10:07:42.806Z,5.83
2022-12-22T10:10:30.774Z,5.99
2022-12-22T10:13:03.587Z,6.12
2022-12-22T10:15:42.090Z,6.26
2022-12-22T10:18:10.676Z,6.41
2022-12-22T10:20:39.891Z,6.57
2022-12-22T10:23:38.856Z,6.73
2022-12-22T10:29:04.484Z,6.87
2022-12-22T10:31:37.206Z,6.96
2022-12-22T10:34:30.879Z,7.12
2022-12-22T10:37:03.367Z,7.18
2022-12-22T10:39:35.651Z,7.28
2022-12-22T10:42:09.848Z,7.34
2022-12-22T10:44:38.649Z,7.42
2022-12-22T10:47:31.679Z,7.53
2022-12-22T10:52:32.041Z,7.69
2022-12-22T10:55:19.279Z,7.78
2022-12-22T10:57:46.347Z,7.85
2022-12-22T11:00:28.840Z,7.92
2022-12-22T11:02:58.352Z,8.01
2022-12-22T11:05:25.706Z,8.11
2022-12-22T11:07:56.665Z,8.17
2022-12-22T11:10:30.684Z,8.25
2022-12-22T11:13:19.008Z,8.41
2022-12-22T11:15:51.620Z,8.53
2022-12-22T11:18:42.549Z,8.58
2022-12-22T11:21:26.815Z,8.71
2022-12-22T11:24:21.765Z,8.77
2022-12-22T11:27:18.281Z,8.77
2022-12-22T11:30:17.060Z,8.92
2022-12-22T11:32:58.546Z,8.99
2022-12-22T11:36:05.169Z,9.03
2022-12-22T11:38:54.824Z,9.13
2022-12-22T11:41:21.653Z,9.22
2022-12-22T11:44:18.223Z,9.24
2022-12-22T11:46:55.248Z,9.31
2022-12-22T11:49:52.576Z,9.36
2022-12-22T11:53:02.038Z,9.38
2022-12-22T11:55:35.449Z,9.39
2022-12-22T11:58:31.306Z,9.49
2022-12-22T12:01:39.108Z,9.47
2022-12-22T12:04:14.716Z,9.55
2022-12-22T12:07:10.393Z,9.55
2022-12-22T12:09:39.953Z,9.55
2022-12-22T12:12:31.040Z,9.52
2022-12-22T12:15:24.358Z,9.50
2022-12-22T12:17:57.102Z,9.48
2022-12-22T12:20:42.309Z,9.49
2022-12-22T12:23:18.172Z,9.46
2022-12-22T12:26:01.583Z,9.56
2022-12-22T12:28:42.468Z,9.65
2022-12-22T12:31:13.066Z,9.58
2022-12-22T12:33:55.306Z,9.57
2022-12-22T12:36:34.459Z,9.58
2022-12-22T12:39:19.418Z,9.44
2022-12-22T12:41:59.228Z,9.33
2022-12-22T12:44:31.692Z,9.34
2022-12-22T12:47:26.393Z,9.31
2022-12-22T12:50:15.121Z,9.19
2022-12-22T12:52:44.245Z,9.06
2022-12-22T12:55:32.791Z,8.94
2022-12-22T12:58:02.437Z,8.91
2022-12-22T13:00:32.185Z,8.92
2022-12-22T13:04:01.133Z,8.82
2022-12-22T13:06:49.864Z,8.55
2022-12-22T13:12:38.183Z,8.26
2022-12-22T13:15:29.900Z,8.19
2022-12-22T13:17:58.977Z,8.03
2022-12-22T13:20:31.489Z,7.89
2022-12-22T13:23:00.550Z,7.69
2022-12-22T13:25:53.157Z,7.45
2022-12-22T13:28:23.586Z,7.24
2022-12-22T13:31:12.767Z,6.94
2022-12-22T13:33:42.594Z,6.78
2022-12-22T13:36:19.033Z,6.62
2022-12-22T13:38:46.249Z,6.43
2022-12-22T13:41:26.582Z,6.29
2022-12-22T13:44:02.111Z,6.12
2022-12-22T13:46:28.972Z,5.93
2022-12-22T13:48:57.705Z,5.81
2022-12-22T13:51:28.801Z,5.61
2022-12-22T13:54:11.072Z,5.45
2022-12-22T13:56:46.173Z,5.35
2022-12-22T13:59:43.333Z,5.25
2022-12-22T14:02:10.037Z,5.12
2022-12-22T14:04:39.147Z,4.96
2022-12-22T14:07:16.187Z,4.88
2022-12-22T14:09:50.479Z,4.72
2022-12-22T14:12:20.960Z,4.61
2022-12-22T14:14:50.466Z,4.48
2022-12-22T14:17:29.479Z,4.41
2022-12-22T14:19:59.516Z,4.26
2022-12-22T14:22:45.452Z,4.16
2022-12-22T14:25:40.695Z,4.02
2022-12-22T14:28:21.068Z,3.94
2022-12-22T14:30:57.131Z,3.79
2022-12-22T14:33:23.942Z,3.71
2022-12-22T14:35:51.175Z,3.65
2022-12-22T14:38:27.099Z,3.56
2022-12-22T14:40:57.821Z,3.42
2022-12-22T14:43:28.831Z,3.27
2022-12-22T14:46:09.326Z,3.15
2022-12-22T14:48:40.546Z,3.00
2022-12-22T14:51:07.778Z,2.88
2022-12-22T14:53:46.713Z,2.80
2022-12-22T14:56:15.852Z,2.74
2022-12-22T14:58:46.542Z,2.64
2022-12-22T15:01:28.935Z,2.55
2022-12-22T15:04:05.092Z,2.40
2022-12-22T15:06:44.119Z,2.34
2022-12-22T15:09:14.496Z,2.24
2022-12-22T15:11:45.779Z,2.20
2022-12-22T15:14:18.800Z,2.11
2022-12-22T15:16:51.356Z,1.99
2022-12-22T15:19:25.125Z,1.89
2022-12-22T15:21:52.258Z,1.82
2022-12-22T15:24:25.800Z,1.69
2022-12-22T15:26:53.845Z,1.62
2022-12-22T15:29:21.608Z,1.46
2022-12-22T15:31:48.142Z,1.34
2022-12-22T15:34:25.005Z,1.23
2022-12-22T15:37:00.777Z,1.14
2022-12-22T15:39:29.700Z,1.09
2022-12-22T15:42:01.389Z,1.02
2022-12-22T15:44:35.226Z,0.94
2022-12-22T15:47:15.558Z,0.89
2022-12-22T15:52:33.368Z,0.76
2022-12-22T15:55:05.734Z,0.69
2022-12-22T15:57:38.368Z,0.62
2022-12-22T16:00:05.644Z,0.58
2022-12-22T16:02:32.567Z,0.52
2022-12-22T16:04:59.356Z,0.45
2022-12-22T16:07:26.362Z,0.40
2022-12-22T16:09:53.247Z,0.40
2022-12-22T16:12:20.519Z,0.35
2022-12-22T16:14:52.209Z,0.28
2022-12-22T16:17:21.191Z,0.26
2022-12-22T16:19:48.013Z,0.24
2022-12-22T16:22:17.484Z,0.20
2022-12-22T16:24:47.275Z,0.17
2022-12-22T16:27:15.178Z,0.13
2022-12-22T16:29:46.194Z,0.12
2022-12-22T16:32:31.659Z,0.05
2022-12-22T16:35:39.830Z,0.01
2022-12-22T16:38:09.706Z,-0.04
2022-12-22T16:40:50.243Z,-0.05
2022-12-22T16:46:21.239Z,-0.12
2022-12-22T16:48:54.410Z,-0.15
2022-12-22T16:51:33.648Z,-0.13
2022-12-22T16:54:04.706Z,-0.19
2022-12-22T16:56:32.627Z,-0.30
2022-12-22T16:59:00.942Z,-0.31
2022-12-22T17:01:46.679Z,-0.29
2022-12-22T17:04:27.020Z,-0.33
2022-12-22T17:06:55.654Z,-0.34
2022-12-22T17:09:39.935Z,-0.34
2022-12-22T17:12:07.363Z,-0.36
2022-12-22T17:14:40.692Z,-0.36
2022-12-22T17:17:18.940Z,-0.38
2022-12-22T17:19:45.963Z,-0.45
2022-12-22T17:22:43.683Z,-0.45
2022-12-22T17:25:17.790Z,-0.53
2022-12-22T17:27:44.638Z,-0.53
2022-12-22T17:30:20.141Z,-0.49
2022-12-22T17:32:53.389Z,-0.53
2022-12-22T17:35:25.785Z,-0.52
2022-12-22T17:37:53.471Z,-0.57
2022-12-22T17:40:27.652Z,-0.54
2022-12-22T17:42:54.644Z,-0.55
2022-12-22T17:45:21.396Z,-0.55
2022-12-22T17:47:48.446Z,-0.61
2022-12-22T17:50:17.527Z,-0.59
2022-12-22T17:52:45.727Z,-0.62
2022-12-22T17:56:05.186Z,-0.62
2022-12-22T17:58:15.635Z,-0.68
2022-12-22T18:00:43.197Z,-0.79
2022-12-22T18:03:14.753Z,-0.84
2022-12-22T18:05:47.431Z,-0.81
2022-12-22T18:08:20.286Z,-0.83
2022-12-22T18:10:48.525Z,-0.85
2022-12-22T18:13:22.900Z,-0.88
2022-12-22T18:15:49.948Z,-0.89
2022-12-22T18:18:18.758Z,-0.88
2022-12-22T18:21:07.364Z,-0.90
2022-12-22T18:23:34.830Z,-0.97
2022-12-22T18:26:02.016Z,-0.99
2022-12-22T18:28:29.476Z,-1.02
2022-12-22T18:30:56.587Z,-0.99
2022-12-22T18:33:23.743Z,-0.97
2022-12-22T18:35:51.182Z,-0.99
2022-12-22T18:38:28.482Z,-1.03
2022-12-22T18:40:55.528Z,-1.04
2022-12-22T18:43:22.429Z,-1.05
2022-12-22T18:45:49.333Z,-1.06
2022-12-22T18:48:16.472Z,-1.02
2022-12-22T18:50:43.570Z,-1.02
2022-12-22T18:53:31.068Z,-1.08
2022-12-22T18:55:58.840Z,-1.10
2022-12-22T18:58:26.663Z,-1.13
2022-12-22T19:00:54.814Z,-1.17
2022-12-22T19:03:24.529Z,-1.24
2022-12-22T19:05:51.410Z,-1.24
2022-12-22T19:08:21.074Z,-1.25
2022-12-22T19:10:59.317Z,-1.27
2022-12-22T19:13:30.200Z,-1.26
2022-12-22T19:15:57.727Z,-1.25
2022-12-22T19:18:27.352Z,-1.18
2022-12-22T19:20:55.692Z,-1.19
2022-12-22T19:23:24.567Z,-1.22
2022-12-22T19:26:03.555Z,-1.26
2022-12-22T19:28:36.448Z,-1.33
2022-12-22T19:31:06.375Z,-1.32
2022-12-22T19:33:42.964Z,-1.36
2022-12-22T19:36:22.177Z,-1.43
2022-12-22T19:38:51.153Z,-1.44
2022-12-22T19:41:38.342Z,-1.48
2022-12-22T19:44:06.554Z,-1.48
2022-12-22T19:46:50.129Z,-1.45
2022-12-22T19:49:47.296Z,-1.48
2022-12-22T19:52:17.026Z,-1.50
2022-12-22T19:54:44.115Z,-1.49
2022-12-22T19:57:18.420Z,-1.52
2022-12-22T19:59:50.478Z,-1.50
2022-12-22T20:02:31.535Z,-1.51
2022-12-22T20:05:16.856Z,-1.47
2022-12-22T20:07:46.753Z,-1.50
2022-12-22T20:10:15.530Z,-1.49
2022-12-22T20:12:47.978Z,-1.51
2022-12-22T20:15:33.874Z,-1.53
2022-12-22T20:18:09.347Z,-1.54
2022-12-22T20:21:23.197Z,-1.52
2022-12-22T20:23:58.028Z,-1.55
2022-12-22T20:26:46.165Z,-1.55
2022-12-22T20:29:23.487Z,-1.58
2022-12-22T20:32:00.770Z,-1.59
2022-12-22T20:34:35.405Z,-1.62
2022-12-22T20:37:05.989Z,-1.64
2022-12-22T20:40:51.351Z,-1.62
2022-12-22T20:43:04.185Z,-1.62
2022-12-22T20:45:46.231Z,-1.64
2022-12-22T20:48:28.806Z,-1.56
2022-12-22T20:50:59.479Z,-1.65
2022-12-22T20:53:58.208Z,-1.62
2022-12-22T20:56:34.242Z,-1.70
2022-12-22T20:59:15.460Z,-1.73
2022-12-22T21:01:45.598Z,-1.75
2022-12-22T21:04:18.716Z,-1.74
2022-12-22T21:07:11.509Z,-1.77
2022-12-22T21:09:39.626Z,-1.77
2022-12-22T21:12:06.520Z,-1.78
2022-12-22T21:14:33.354Z,-1.78
2022-12-22T21:17:00.313Z,-1.76
2022-12-22T21:19:27.137Z,-1.76
2022-12-22T21:21:54.858Z,-1.77
2022-12-22T21:24:21.658Z,-1.80
2022-12-22T21:26:53.462Z,-1.80
2022-12-22T21:29:26.000Z,-1.85
2022-12-22T21:31:53.627Z,-1.87
2022-12-22T21:34:21.089Z,-1.87
2022-12-22T21:36:51.833Z,-1.86
2022-12-22T21:42:01.991Z,-1.82
2022-12-22T21:44:34.152Z,-1.84
2022-12-22T21:47:01.461Z,-1.87
2022-12-22T21:49:32.067Z,-1.89
2022-12-22T21:51:59.480Z,-1.87
2022-12-22T21:54:26.892Z,-1.88
2022-12-22T21:56:55.430Z,-1.90
2022-12-22T21:59:22.574Z,-1.90
2022-12-22T22:01:52.981Z,-1.90
2022-12-22T22:04:21.928Z,-1.91
2022-12-22T22:14:34.312Z,-2.04
2022-12-22T22:17:02.413Z,-2.05
2022-12-22T22:22:11.646Z,-2.09
2022-12-22T22:24:39.619Z,-2.08
2022-12-22T22:27:13.480Z,-2.04
2022-12-22T22:29:57.359Z,-2.11
2022-12-22T22:32:25.229Z,-2.19
2022-12-22T22:35:09.350Z,-2.15
2022-12-22T22:38:02.621Z,-2.14
2022-12-22T22:41:30.699Z,-2.11
2022-12-22T22:44:06.727Z,-2.17
2022-12-22T22:46:42.908Z,-2.20
2022-12-22T22:49:28.369Z,-2.17
2022-12-22T22:52:26.650Z,-2.20
2022-12-22T22:56:24.848Z,-2.22
2022-12-22T22:58:22.095Z,-2.23
2022-12-22T23:00:49.797Z,-2.20
2022-12-22T23:03:36.526Z,-2.22
2022-12-22T23:06:29.263Z,-2.24
2022-12-22T23:09:03.035Z,-2.19
2022-12-22T23:11:58.736Z,-2.22
2022-12-22T23:14:28.914Z,-2.21
2022-12-22T23:17:00.580Z,-2.23
2022-12-22T23:19:28.187Z,-2.19
2022-12-22T23:21:55.205Z,-2.23
2022-12-22T23:24:22.629Z,-2.24
2022-12-22T23:26:49.644Z,-2.28
2022-12-22T23:29:16.617Z,-2.22
2022-12-22T23:31:44.367Z,-2.19
2022-12-22T23:34:12.564Z,-2.16
2022-12-22T23:36:39.529Z,-2.13
2022-12-22T23:39:06.663Z,-2.14
2022-12-22T23:41:34.375Z,-2.12
2022-12-22T23:44:01.514Z,-2.16
2022-12-22T23:46:28.575Z,-2.14
2022-12-22T23:48:57.686Z,-2.08
2022-12-22T23:51:29.562Z,-2.16
2022-12-22T23:53:58.539Z,-2.17
2022-12-22T23:56:25.562Z,-2.16
2022-12-22T23:58:54.826Z,-2.14
